sensor_id;sensor_type;location;lat;lon;timestamp;pressure;altitude;pressure_sealevel;temperature;humidity
63190;BME280;49286;44.460;26.114;2023-05-21T00:00:47;100467.13;;;15.35;100.00
63190;BME280;49286;44.460;26.114;2023-05-21T00:03:14;100387.38;;;15.11;100.00
63190;BME280;49286;44.460;26.114;2023-05-21T00:05:40;100473.88;;;15.50;100.00
63190;BME280;49286;44.460;26.114;2023-05-21T00:08:06;100472.13;;;15.49;100.00
63190;BME280;49286;44.460;26.114;2023-05-21T00:10:31;100463.53;;;15.37;100.00
63190;BME280;49286;44.460;26.114;2023-05-21T00:12:57;100492.31;;;15.54;100.00
63190;BME280;49286;44.460;26.114;2023-05-21T00:15:22;100389.50;;;14.92;100.00
63190;BME280;49286;44.460;26.114;2023-05-21T00:17:48;100489.97;;;15.39;100.00
63190;BME280;49286;44.460;26.114;2023-05-21T00:20:13;100350.44;;;14.60;100.00
63190;BME280;49286;44.460;26.114;2023-05-21T00:22:40;100477.72;;;15.33;100.00
63190;BME280;49286;44.460;26.114;2023-05-21T00:25:07;100478.56;;;15.35;100.00
63190;BME280;49286;44.460;26.114;2023-05-21T00:27:32;100434.94;;;15.13;100.00
63190;BME280;49286;44.460;26.114;2023-05-21T00:29:58;100372.19;;;14.74;100.00
63190;BME280;49286;44.460;26.114;2023-05-21T00:32:23;100469.16;;;15.20;100.00
63190;BME280;49286;44.460;26.114;2023-05-21T00:34:49;100478.78;;;15.25;100.00
63190;BME280;49286;44.460;26.114;2023-05-21T00:37:15;100452.38;;;15.22;100.00
63190;BME280;49286;44.460;26.114;2023-05-21T00:39:40;100402.97;;;14.77;100.00
63190;BME280;49286;44.460;26.114;2023-05-21T00:42:06;100472.72;;;15.16;100.00
63190;BME280;49286;44.460;26.114;2023-05-21T00:44:31;100457.88;;;15.11;100.00
63190;BME280;49286;44.460;26.114;2023-05-21T00:47:01;100460.69;;;15.02;100.00
63190;BME280;49286;44.460;26.114;2023-05-21T00:49:27;100470.94;;;15.20;100.00
63190;BME280;49286;44.460;26.114;2023-05-21T00:51:53;100406.22;;;14.93;100.00
63190;BME280;49286;44.460;26.114;2023-05-21T00:54:20;100462.91;;;15.25;100.00
63190;BME280;49286;44.460;26.114;2023-05-21T00:56:46;100382.75;;;14.76;100.00
63190;BME280;49286;44.460;26.114;2023-05-21T00:59:13;100448.94;;;15.16;100.00
63190;BME280;49286;44.460;26.114;2023-05-21T01:01:42;100325.28;;;14.38;100.00
63190;BME280;49286;44.460;26.114;2023-05-21T01:04:10;100347.03;;;14.52;100.00
63190;BME280;49286;44.460;26.114;2023-05-21T01:06:36;100405.25;;;14.97;100.00
63190;BME280;49286;44.460;26.114;2023-05-21T01:09:02;100346.16;;;14.51;100.00
63190;BME280;49286;44.460;26.114;2023-05-21T01:11:44;100389.03;;;14.69;100.00
63190;BME280;49286;44.460;26.114;2023-05-21T01:14:12;100315.69;;;14.32;100.00
63190;BME280;49286;44.460;26.114;2023-05-21T01:16:41;100338.41;;;14.42;100.00
63190;BME280;49286;44.460;26.114;2023-05-21T01:19:09;100434.47;;;14.89;100.00
63190;BME280;49286;44.460;26.114;2023-05-21T01:21:41;100434.41;;;14.94;100.00
63190;BME280;49286;44.460;26.114;2023-05-21T01:24:08;100319.47;;;14.17;100.00
63190;BME280;49286;44.460;26.114;2023-05-21T01:26:34;100342.09;;;14.30;100.00
63190;BME280;49286;44.460;26.114;2023-05-21T01:29:06;100379.66;;;14.49;100.00
63190;BME280;49286;44.460;26.114;2023-05-21T01:34:29;100387.56;;;14.49;100.00
63190;BME280;49286;44.460;26.114;2023-05-21T01:37:26;100432.09;;;14.74;100.00
63190;BME280;49286;44.460;26.114;2023-05-21T01:39:57;100409.38;;;14.62;100.00
63190;BME280;49286;44.460;26.114;2023-05-21T01:42:24;100430.28;;;14.76;100.00
63190;BME280;49286;44.460;26.114;2023-05-21T01:44:54;100320.53;;;14.04;100.00
63190;BME280;49286;44.460;26.114;2023-05-21T01:47:24;100419.19;;;14.52;100.00
63190;BME280;49286;44.460;26.114;2023-05-21T01:49:51;100301.31;;;13.97;100.00
63190;BME280;49286;44.460;26.114;2023-05-21T01:52:17;100421.94;;;14.46;100.00
63190;BME280;49286;44.460;26.114;2023-05-21T01:54:43;100403.50;;;14.42;100.00
63190;BME280;49286;44.460;26.114;2023-05-21T01:57:08;100420.94;;;14.53;100.00
63190;BME280;49286;44.460;26.114;2023-05-21T01:59:34;100387.81;;;14.32;100.00
63190;BME280;49286;44.460;26.114;2023-05-21T02:02:00;100345.09;;;14.09;100.00
63190;BME280;49286;44.460;26.114;2023-05-21T02:04:26;100407.94;;;14.41;100.00
63190;BME280;49286;44.460;26.114;2023-05-21T02:06:51;100305.06;;;13.81;100.00
63190;BME280;49286;44.460;26.114;2023-05-21T02:09:19;100270.03;;;13.72;100.00
63190;BME280;49286;44.460;26.114;2023-05-21T02:11:44;100379.91;;;14.32;100.00
63190;BME280;49286;44.460;26.114;2023-05-21T02:14:10;100363.06;;;14.40;100.00
63190;BME280;49286;44.460;26.114;2023-05-21T02:16:38;100386.81;;;14.41;100.00
63190;BME280;49286;44.460;26.114;2023-05-21T02:19:04;100363.91;;;14.42;100.00
63190;BME280;49286;44.460;26.114;2023-05-21T02:21:30;100256.81;;;13.74;100.00
63190;BME280;49286;44.460;26.114;2023-05-21T02:23:56;100289.97;;;13.90;100.00
63190;BME280;49286;44.460;26.114;2023-05-21T02:26:21;100333.47;;;14.21;100.00
63190;BME280;49286;44.460;26.114;2023-05-21T02:28:47;100361.19;;;14.48;100.00
63190;BME280;49286;44.460;26.114;2023-05-21T02:31:12;100349.16;;;14.30;100.00
63190;BME280;49286;44.460;26.114;2023-05-21T02:33:41;100289.88;;;13.97;100.00
63190;BME280;49286;44.460;26.114;2023-05-21T02:36:06;100355.22;;;14.35;100.00
63190;BME280;49286;44.460;26.114;2023-05-21T02:38:40;100247.31;;;13.65;100.00
63190;BME280;49286;44.460;26.114;2023-05-21T02:41:10;100374.53;;;14.40;100.00
63190;BME280;49286;44.460;26.114;2023-05-21T02:43:37;100296.09;;;13.94;100.00
63190;BME280;49286;44.460;26.114;2023-05-21T02:46:04;100329.22;;;14.12;100.00
63190;BME280;49286;44.460;26.114;2023-05-21T02:48:30;100229.00;;;13.55;100.00
63190;BME280;49286;44.460;26.114;2023-05-21T02:50:55;100382.41;;;14.42;100.00
63190;BME280;49286;44.460;26.114;2023-05-21T02:53:21;100398.06;;;14.52;100.00
63190;BME280;49286;44.460;26.114;2023-05-21T02:55:46;100405.91;;;14.60;100.00
63190;BME280;49286;44.460;26.114;2023-05-21T02:58:12;100380.28;;;14.65;100.00
63190;BME280;49286;44.460;26.114;2023-05-21T03:00:39;100223.66;;;13.59;100.00
63190;BME280;49286;44.460;26.114;2023-05-21T03:03:04;100397.13;;;14.58;100.00
63190;BME280;49286;44.460;26.114;2023-05-21T03:05:30;100385.59;;;14.64;100.00
63190;BME280;49286;44.460;26.114;2023-05-21T03:07:55;100398.75;;;14.65;100.00
63190;BME280;49286;44.460;26.114;2023-05-21T03:10:21;100404.72;;;14.78;100.00
63190;BME280;49286;44.460;26.114;2023-05-21T03:12:46;100409.16;;;14.74;100.00
63190;BME280;49286;44.460;26.114;2023-05-21T03:15:12;100282.69;;;14.06;100.00
63190;BME280;49286;44.460;26.114;2023-05-21T03:17:40;100305.03;;;13.84;100.00
63190;BME280;49286;44.460;26.114;2023-05-21T03:20:09;100316.47;;;13.81;100.00
63190;BME280;49286;44.460;26.114;2023-05-21T03:22:42;100415.88;;;14.40;100.00
63190;BME280;49286;44.460;26.114;2023-05-21T03:25:09;100274.59;;;13.61;100.00
63190;BME280;49286;44.460;26.114;2023-05-21T03:27:34;100278.09;;;13.63;100.00
63190;BME280;49286;44.460;26.114;2023-05-21T03:29:59;100382.63;;;14.28;100.00
63190;BME280;49286;44.460;26.114;2023-05-21T03:32:25;100263.19;;;13.61;100.00
63190;BME280;49286;44.460;26.114;2023-05-21T03:34:50;100381.47;;;14.44;100.00
63190;BME280;49286;44.460;26.114;2023-05-21T03:37:17;100358.91;;;14.26;100.00
63190;BME280;49286;44.460;26.114;2023-05-21T03:39:43;100358.91;;;14.26;100.00
63190;BME280;49286;44.460;26.114;2023-05-21T03:42:08;100292.69;;;13.86;100.00
63190;BME280;49286;44.460;26.114;2023-05-21T03:44:34;100293.44;;;13.96;100.00
63190;BME280;49286;44.460;26.114;2023-05-21T03:46:59;100295.00;;;14.06;100.00
63190;BME280;49286;44.460;26.114;2023-05-21T03:49:25;100322.06;;;14.19;100.00
63190;BME280;49286;44.460;26.114;2023-05-21T03:51:51;100392.69;;;14.60;100.00
63190;BME280;49286;44.460;26.114;2023-05-21T03:54:17;100285.28;;;14.09;100.00
63190;BME280;49286;44.460;26.114;2023-05-21T03:56:42;100301.00;;;14.15;100.00
63190;BME280;49286;44.460;26.114;2023-05-21T03:59:08;100303.59;;;14.19;100.00
63190;BME280;49286;44.460;26.114;2023-05-21T04:01:33;100415.06;;;14.90;100.00
63190;BME280;49286;44.460;26.114;2023-05-21T04:03:59;100371.56;;;14.62;100.00
63190;BME280;49286;44.460;26.114;2023-05-21T04:06:24;100413.38;;;14.86;100.00
63190;BME280;49286;44.460;26.114;2023-05-21T04:08:50;100341.94;;;14.40;100.00
63190;BME280;49286;44.460;26.114;2023-05-21T04:11:16;100434.50;;;14.88;100.00
63190;BME280;49286;44.460;26.114;2023-05-21T04:13:42;100334.97;;;14.37;100.00
63190;BME280;49286;44.460;26.114;2023-05-21T04:16:07;100301.66;;;14.30;100.00
63190;BME280;49286;44.460;26.114;2023-05-21T04:18:34;100425.31;;;15.07;100.00
63190;BME280;49286;44.460;26.114;2023-05-21T04:20:59;100385.91;;;14.95;100.00
63190;BME280;49286;44.460;26.114;2023-05-21T04:23:26;100311.88;;;14.50;100.00
63190;BME280;49286;44.460;26.114;2023-05-21T04:25:52;100391.88;;;15.06;100.00
63190;BME280;49286;44.460;26.114;2023-05-21T04:28:18;100420.53;;;15.29;100.00
63190;BME280;49286;44.460;26.114;2023-05-21T04:30:45;100364.72;;;14.98;100.00
63190;BME280;49286;44.460;26.114;2023-05-21T04:33:11;100330.53;;;14.89;100.00
63190;BME280;49286;44.460;26.114;2023-05-21T04:35:36;100415.66;;;15.53;100.00
63190;BME280;49286;44.460;26.114;2023-05-21T04:38:08;100421.72;;;15.58;100.00
63190;BME280;49286;44.460;26.114;2023-05-21T04:40:34;100425.91;;;15.68;100.00
63190;BME280;49286;44.460;26.114;2023-05-21T04:43:00;100213.06;;;14.63;100.00
63190;BME280;49286;44.460;26.114;2023-05-21T04:45:27;100270.31;;;15.06;100.00
63190;BME280;49286;44.460;26.114;2023-05-21T04:47:53;100363.19;;;15.75;100.00
63190;BME280;49286;44.460;26.114;2023-05-21T04:50:18;100306.28;;;15.55;100.00
63190;BME280;49286;44.460;26.114;2023-05-21T04:52:44;100400.09;;;16.20;100.00
63190;BME280;49286;44.460;26.114;2023-05-21T04:55:10;100439.13;;;16.51;100.00
63190;BME280;49286;44.460;26.114;2023-05-21T04:57:36;100334.19;;;16.09;100.00
63190;BME280;49286;44.460;26.114;2023-05-21T05:00:02;100382.81;;;16.41;100.00
63190;BME280;49286;44.460;26.114;2023-05-21T05:02:30;100388.25;;;16.71;100.00
63190;BME280;49286;44.460;26.114;2023-05-21T05:04:55;100309.56;;;16.41;100.00
63190;BME280;49286;44.460;26.114;2023-05-21T05:07:21;100419.28;;;17.34;100.00
63190;BME280;49286;44.460;26.114;2023-05-21T05:09:47;100415.53;;;17.43;100.00
63190;BME280;49286;44.460;26.114;2023-05-21T05:12:12;100443.09;;;18.00;100.00
63190;BME280;49286;44.460;26.114;2023-05-21T05:14:38;100447.56;;;18.27;100.00
63190;BME280;49286;44.460;26.114;2023-05-21T05:17:03;100457.22;;;18.58;100.00
63190;BME280;49286;44.460;26.114;2023-05-21T05:19:29;100335.28;;;18.22;100.00
63190;BME280;49286;44.460;26.114;2023-05-21T05:21:55;100431.50;;;19.12;100.00
63190;BME280;49286;44.460;26.114;2023-05-21T05:24:21;100469.41;;;19.69;100.00
63190;BME280;49286;44.460;26.114;2023-05-21T05:26:46;100481.34;;;19.57;100.00
63190;BME280;49286;44.460;26.114;2023-05-21T05:29:12;100462.97;;;19.99;100.00
63190;BME280;49286;44.460;26.114;2023-05-21T05:31:37;100449.44;;;20.04;100.00
63190;BME280;49286;44.460;26.114;2023-05-21T05:34:03;100375.31;;;19.70;100.00
63190;BME280;49286;44.460;26.114;2023-05-21T05:36:28;100363.78;;;19.93;100.00
63190;BME280;49286;44.460;26.114;2023-05-21T05:38:54;100474.94;;;20.57;100.00
63190;BME280;49286;44.460;26.114;2023-05-21T05:41:19;100385.69;;;20.43;100.00
63190;BME280;49286;44.460;26.114;2023-05-21T05:43:45;100427.00;;;20.77;100.00
63190;BME280;49286;44.460;26.114;2023-05-21T05:46:10;100421.19;;;20.68;100.00
63190;BME280;49286;44.460;26.114;2023-05-21T05:48:36;100480.53;;;21.15;100.00
63190;BME280;49286;44.460;26.114;2023-05-21T05:51:01;100361.47;;;20.50;100.00
63190;BME280;49286;44.460;26.114;2023-05-21T05:53:27;100382.44;;;21.00;100.00
63190;BME280;49286;44.460;26.114;2023-05-21T05:55:52;100464.88;;;21.48;100.00
63190;BME280;49286;44.460;26.114;2023-05-21T05:58:18;100470.78;;;21.35;100.00
63190;BME280;49286;44.460;26.114;2023-05-21T06:00:43;100479.28;;;21.84;100.00
63190;BME280;49286;44.460;26.114;2023-05-21T06:03:09;100465.72;;;21.49;100.00
63190;BME280;49286;44.460;26.114;2023-05-21T06:05:36;100368.41;;;21.36;100.00
63190;BME280;49286;44.460;26.114;2023-05-21T06:08:01;100362.00;;;21.00;100.00
63190;BME280;49286;44.460;26.114;2023-05-21T06:10:27;100415.72;;;21.12;100.00
63190;BME280;49286;44.460;26.114;2023-05-21T06:12:52;100361.47;;;21.71;100.00
63190;BME280;49286;44.460;26.114;2023-05-21T06:15:18;100456.59;;;22.13;97.67
63190;BME280;49286;44.460;26.114;2023-05-21T06:17:43;100480.84;;;22.65;96.47
63190;BME280;49286;44.460;26.114;2023-05-21T06:20:10;100464.28;;;21.81;96.53
63190;BME280;49286;44.460;26.114;2023-05-21T06:22:36;100456.50;;;21.96;94.68
63190;BME280;49286;44.460;26.114;2023-05-21T06:25:01;100465.06;;;22.23;94.61
63190;BME280;49286;44.460;26.114;2023-05-21T06:27:27;100374.13;;;21.07;97.20
63190;BME280;49286;44.460;26.114;2023-05-21T06:29:53;100433.53;;;21.91;93.96
63190;BME280;49286;44.460;26.114;2023-05-21T06:32:18;100459.34;;;21.72;97.04
63190;BME280;49286;44.460;26.114;2023-05-21T06:34:45;100359.66;;;21.32;97.83
63190;BME280;49286;44.460;26.114;2023-05-21T06:37:11;100448.69;;;21.91;96.09
63190;BME280;49286;44.460;26.114;2023-05-21T06:39:36;100335.22;;;21.22;99.66
63190;BME280;49286;44.460;26.114;2023-05-21T06:42:02;100441.19;;;21.99;98.27
63190;BME280;49286;44.460;26.114;2023-05-21T06:44:27;100443.72;;;22.02;98.66
63190;BME280;49286;44.460;26.114;2023-05-21T06:46:53;100339.25;;;21.12;99.53
63190;BME280;49286;44.460;26.114;2023-05-21T06:49:18;100449.63;;;21.71;100.00
63190;BME280;49286;44.460;26.114;2023-05-21T06:51:44;100338.09;;;21.57;96.59
63190;BME280;49286;44.460;26.114;2023-05-21T06:54:11;100328.00;;;21.45;97.85
63190;BME280;49286;44.460;26.114;2023-05-21T06:56:36;100354.91;;;21.78;94.54
63190;BME280;49286;44.460;26.114;2023-05-21T06:59:02;100354.91;;;21.78;92.55
63190;BME280;49286;44.460;26.114;2023-05-21T07:01:28;100429.34;;;22.24;92.59
63190;BME280;49286;44.460;26.114;2023-05-21T07:03:54;100428.41;;;22.44;90.64
63190;BME280;49286;44.460;26.114;2023-05-21T07:06:20;100343.13;;;22.01;90.55
63190;BME280;49286;44.460;26.114;2023-05-21T07:08:46;100381.53;;;22.18;86.86
63190;BME280;49286;44.460;26.114;2023-05-21T07:11:14;100424.28;;;22.18;89.85
63190;BME280;49286;44.460;26.114;2023-05-21T07:13:39;100313.16;;;21.38;89.88
63190;BME280;49286;44.460;26.114;2023-05-21T07:16:05;100404.06;;;22.12;90.64
63190;BME280;49286;44.460;26.114;2023-05-21T07:18:31;100402.63;;;21.86;89.87
63190;BME280;49286;44.460;26.114;2023-05-21T07:20:56;100396.41;;;22.23;91.48
63190;BME280;49286;44.460;26.114;2023-05-21T07:23:21;100283.59;;;21.61;91.41
63190;BME280;49286;44.460;26.114;2023-05-21T07:25:47;100344.66;;;21.50;91.87
63190;BME280;49286;44.460;26.114;2023-05-21T07:28:12;100381.25;;;21.67;94.21
63190;BME280;49286;44.460;26.114;2023-05-21T07:30:38;100409.50;;;22.10;95.63
63190;BME280;49286;44.460;26.114;2023-05-21T07:33:03;100406.31;;;22.58;92.10
63190;BME280;49286;44.460;26.114;2023-05-21T07:35:29;100322.94;;;22.13;90.51
63190;BME280;49286;44.460;26.114;2023-05-21T07:37:54;100399.91;;;22.43;91.10
63190;BME280;49286;44.460;26.114;2023-05-21T07:40:20;100301.94;;;21.69;89.51
63190;BME280;49286;44.460;26.114;2023-05-21T07:42:45;100334.47;;;21.77;91.46
63190;BME280;49286;44.460;26.114;2023-05-21T07:45:11;100313.13;;;22.13;90.02
63190;BME280;49286;44.460;26.114;2023-05-21T07:47:36;100319.31;;;22.14;87.60
63190;BME280;49286;44.460;26.114;2023-05-21T07:50:02;100279.38;;;21.75;90.23
63190;BME280;49286;44.460;26.114;2023-05-21T07:52:27;100409.47;;;22.48;90.23
63190;BME280;49286;44.460;26.114;2023-05-21T07:54:53;100407.88;;;22.44;89.23
63190;BME280;49286;44.460;26.114;2023-05-21T07:57:18;100340.63;;;22.34;87.79
63190;BME280;49286;44.460;26.114;2023-05-21T07:59:44;100369.19;;;22.86;87.00
63190;BME280;49286;44.460;26.114;2023-05-21T08:02:09;100214.38;;;21.93;89.93
63190;BME280;49286;44.460;26.114;2023-05-21T08:04:35;100397.44;;;22.74;87.91
63190;BME280;49286;44.460;26.114;2023-05-21T08:07:01;100366.53;;;22.69;88.87
63190;BME280;49286;44.460;26.114;2023-05-21T08:09:26;100369.38;;;23.18;87.89
63190;BME280;49286;44.460;26.114;2023-05-21T08:11:52;100284.94;;;22.60;85.91
63190;BME280;49286;44.460;26.114;2023-05-21T08:14:17;100289.81;;;22.69;84.69
63190;BME280;49286;44.460;26.114;2023-05-21T08:16:43;100330.38;;;23.12;79.51
63190;BME280;49286;44.460;26.114;2023-05-21T08:19:09;100395.78;;;23.24;78.49
63190;BME280;49286;44.460;26.114;2023-05-21T08:21:35;100359.47;;;23.36;76.16
63190;BME280;49286;44.460;26.114;2023-05-21T08:24:01;100315.22;;;23.29;76.28
63190;BME280;49286;44.460;26.114;2023-05-21T08:26:27;100346.75;;;23.24;79.70
63190;BME280;49286;44.460;26.114;2023-05-21T08:28:52;100382.75;;;23.51;79.92
63190;BME280;49286;44.460;26.114;2023-05-21T08:31:18;100313.47;;;23.12;79.36
63190;BME280;49286;44.460;26.114;2023-05-21T08:33:51;100412.47;;;24.28;74.82
63190;BME280;49286;44.460;26.114;2023-05-21T08:36:16;100411.94;;;24.99;72.28
63190;BME280;49286;44.460;26.114;2023-05-21T08:38:42;100406.50;;;23.57;72.27
63190;BME280;49286;44.460;26.114;2023-05-21T08:41:10;100396.56;;;24.09;72.20
63190;BME280;49286;44.460;26.114;2023-05-21T08:43:36;100319.31;;;23.03;71.12
63190;BME280;49286;44.460;26.114;2023-05-21T08:46:03;100315.59;;;22.88;75.63
63190;BME280;49286;44.460;26.114;2023-05-21T08:48:29;100326.28;;;23.23;74.09
63190;BME280;49286;44.460;26.114;2023-05-21T08:50:55;100319.91;;;23.25;73.90
63190;BME280;49286;44.460;26.114;2023-05-21T08:53:22;100376.28;;;24.35;70.19
63190;BME280;49286;44.460;26.114;2023-05-21T08:55:52;100312.78;;;23.89;69.88
63190;BME280;49286;44.460;26.114;2023-05-21T08:58:20;100401.16;;;24.22;70.06
63190;BME280;49286;44.460;26.114;2023-05-21T09:00:46;100383.59;;;24.01;68.80
63190;BME280;49286;44.460;26.114;2023-05-21T09:03:12;100302.22;;;23.70;65.59
63190;BME280;49286;44.460;26.114;2023-05-21T09:05:42;100267.56;;;24.29;63.39
63190;BME280;49286;44.460;26.114;2023-05-21T09:08:18;100404.50;;;24.58;64.32
63190;BME280;49286;44.460;26.114;2023-05-21T09:10:49;100377.63;;;24.74;63.13
63190;BME280;49286;44.460;26.114;2023-05-21T09:13:16;100402.72;;;25.47;57.70
63190;BME280;49286;44.460;26.114;2023-05-21T09:15:46;100308.31;;;24.36;57.60
63190;BME280;49286;44.460;26.114;2023-05-21T09:18:13;100390.97;;;24.75;58.58
63190;BME280;49286;44.460;26.114;2023-05-21T09:20:39;100393.06;;;24.70;60.35
63190;BME280;49286;44.460;26.114;2023-05-21T09:23:07;100328.28;;;24.76;58.68
63190;BME280;49286;44.460;26.114;2023-05-21T09:25:44;100430.06;;;26.11;57.75
63190;BME280;49286;44.460;26.114;2023-05-21T09:28:15;100415.84;;;25.23;56.33
63190;BME280;49286;44.460;26.114;2023-05-21T09:30:51;100413.84;;;25.70;56.10
63190;BME280;49286;44.460;26.114;2023-05-21T09:33:27;100323.81;;;24.31;57.76
63190;BME280;49286;44.460;26.114;2023-05-21T09:35:56;100351.28;;;25.39;57.01
63190;BME280;49286;44.460;26.114;2023-05-21T09:38:22;100337.66;;;26.52;52.31
63190;BME280;49286;44.460;26.114;2023-05-21T09:40:48;100405.47;;;26.18;53.19
63190;BME280;49286;44.460;26.114;2023-05-21T09:43:14;100401.72;;;26.20;52.21
63190;BME280;49286;44.460;26.114;2023-05-21T09:45:53;100294.31;;;25.34;52.36
63190;BME280;49286;44.460;26.114;2023-05-21T09:48:32;100368.13;;;24.98;50.75
63190;BME280;49286;44.460;26.114;2023-05-21T09:51:13;100396.06;;;25.96;50.05
63190;BME280;49286;44.460;26.114;2023-05-21T09:53:53;100380.56;;;26.56;48.39
63190;BME280;49286;44.460;26.114;2023-05-21T09:56:24;100407.03;;;26.62;48.96
63190;BME280;49286;44.460;26.114;2023-05-21T09:58:54;100386.72;;;27.36;48.13
63190;BME280;49286;44.460;26.114;2023-05-21T10:01:22;100408.75;;;28.05;46.69
63190;BME280;49286;44.460;26.114;2023-05-21T10:03:55;100298.59;;;27.62;45.36
63190;BME280;49286;44.460;26.114;2023-05-21T10:06:23;100409.53;;;28.31;44.77
63190;BME280;49286;44.460;26.114;2023-05-21T10:08:53;100314.16;;;27.46;45.47
63190;BME280;49286;44.460;26.114;2023-05-21T10:11:21;100396.44;;;28.38;45.18
63190;BME280;49286;44.460;26.114;2023-05-21T10:13:52;100387.44;;;28.26;46.04
63190;BME280;49286;44.460;26.114;2023-05-21T10:16:20;100280.22;;;26.66;45.86
63190;BME280;49286;44.460;26.114;2023-05-21T10:18:46;100386.97;;;26.26;48.40
63190;BME280;49286;44.460;26.114;2023-05-21T10:21:14;100333.25;;;27.04;47.52
63190;BME280;49286;44.460;26.114;2023-05-21T10:23:40;100362.22;;;25.51;50.13
63190;BME280;49286;44.460;26.114;2023-05-21T10:26:07;100292.19;;;25.95;49.16
63190;BME280;49286;44.460;26.114;2023-05-21T10:28:32;100318.41;;;26.46;48.14
63190;BME280;49286;44.460;26.114;2023-05-21T10:30:59;100288.34;;;26.52;47.70
63190;BME280;49286;44.460;26.114;2023-05-21T10:33:25;100367.44;;;25.09;48.84
63190;BME280;49286;44.460;26.114;2023-05-21T10:35:52;100396.66;;;25.30;49.49
63190;BME280;49286;44.460;26.114;2023-05-21T10:38:18;100317.19;;;24.97;51.03
63190;BME280;49286;44.460;26.114;2023-05-21T10:40:46;100344.03;;;24.97;50.96
63190;BME280;49286;44.460;26.114;2023-05-21T10:48:43;100395.25;;;25.53;49.80
63190;BME280;49286;44.460;26.114;2023-05-21T10:54:05;100391.94;;;26.99;47.06
63190;BME280;49286;44.460;26.114;2023-05-21T10:57:13;100396.97;;;27.31;47.63
63190;BME280;49286;44.460;26.114;2023-05-21T10:59:45;100375.75;;;28.02;44.93
63190;BME280;49286;44.460;26.114;2023-05-21T11:02:16;100286.38;;;27.20;45.55
63190;BME280;49286;44.460;26.114;2023-05-21T11:04:44;100374.38;;;25.70;46.15
63190;BME280;49286;44.460;26.114;2023-05-21T11:07:14;100379.19;;;26.76;45.05
63190;BME280;49286;44.460;26.114;2023-05-21T11:09:49;100350.09;;;26.55;45.14
63190;BME280;49286;44.460;26.114;2023-05-21T11:12:15;100286.09;;;24.64;47.53
63190;BME280;49286;44.460;26.114;2023-05-21T11:14:56;100335.63;;;25.03;48.25
63190;BME280;49286;44.460;26.114;2023-05-21T11:17:36;100268.06;;;25.94;47.43
63190;BME280;49286;44.460;26.114;2023-05-21T11:20:06;100290.56;;;26.72;47.03
63190;BME280;49286;44.460;26.114;2023-05-21T11:22:34;100290.56;;;27.11;45.42
63190;BME280;49286;44.460;26.114;2023-05-21T11:25:01;100391.84;;;27.01;45.01
63190;BME280;49286;44.460;26.114;2023-05-21T11:29:58;100369.25;;;25.39;47.25
63190;BME280;49286;44.460;26.114;2023-05-21T11:32:25;100274.75;;;24.29;48.37
63190;BME280;49286;44.460;26.114;2023-05-21T11:34:50;100362.59;;;25.30;48.37
63190;BME280;49286;44.460;26.114;2023-05-21T11:39:42;100391.69;;;26.49;46.42
63190;BME280;49286;44.460;26.114;2023-05-21T11:42:08;100387.78;;;26.55;46.01
63190;BME280;49286;44.460;26.114;2023-05-21T11:44:41;100350.09;;;26.41;46.28
63190;BME280;49286;44.460;26.114;2023-05-21T11:47:08;100310.06;;;26.63;45.96
63190;BME280;49286;44.460;26.114;2023-05-21T11:49:34;100283.13;;;26.23;46.65
63190;BME280;49286;44.460;26.114;2023-05-21T11:52:01;100272.38;;;26.23;45.78
63190;BME280;49286;44.460;26.114;2023-05-21T11:54:27;100359.56;;;26.33;46.84
63190;BME280;49286;44.460;26.114;2023-05-21T11:56:58;100343.22;;;25.25;48.19
63190;BME280;49286;44.460;26.114;2023-05-21T11:59:26;100289.28;;;25.42;49.54
63190;BME280;49286;44.460;26.114;2023-05-21T12:01:51;100283.56;;;25.05;49.03
63190;BME280;49286;44.460;26.114;2023-05-21T12:04:17;100345.75;;;25.12;49.14
63190;BME280;49286;44.460;26.114;2023-05-21T12:06:42;100345.09;;;25.09;49.52
63190;BME280;49286;44.460;26.114;2023-05-21T12:09:09;100240.41;;;24.94;48.78
63190;BME280;49286;44.460;26.114;2023-05-21T12:11:37;100335.81;;;25.28;49.17
63190;BME280;49286;44.460;26.114;2023-05-21T12:14:08;100350.72;;;26.31;48.26
63190;BME280;49286;44.460;26.114;2023-05-21T12:16:35;100337.06;;;25.52;48.99
63190;BME280;49286;44.460;26.114;2023-05-21T12:19:04;100350.41;;;26.36;48.53
63190;BME280;49286;44.460;26.114;2023-05-21T12:21:32;100237.59;;;24.81;49.19
63190;BME280;49286;44.460;26.114;2023-05-21T12:23:58;100341.53;;;25.24;49.10
63190;BME280;49286;44.460;26.114;2023-05-21T12:26:24;100350.09;;;25.72;49.06
63190;BME280;49286;44.460;26.114;2023-05-21T12:28:52;100339.16;;;25.75;49.13
63190;BME280;49286;44.460;26.114;2023-05-21T12:31:19;100263.56;;;24.67;48.77
63190;BME280;49286;44.460;26.114;2023-05-21T12:33:49;100318.78;;;25.85;48.42
63190;BME280;49286;44.460;26.114;2023-05-21T12:36:41;100330.91;;;25.78;48.55
63190;BME280;49286;44.460;26.114;2023-05-21T12:39:10;100313.13;;;24.61;50.71
63190;BME280;49286;44.460;26.114;2023-05-21T12:41:36;100286.38;;;24.43;51.59
63190;BME280;49286;44.460;26.114;2023-05-21T12:44:01;100248.25;;;24.69;51.09
63190;BME280;49286;44.460;26.114;2023-05-21T12:46:29;100204.50;;;25.10;49.79
63190;BME280;49286;44.460;26.114;2023-05-21T12:48:54;100325.63;;;25.91;49.58
63190;BME280;49286;44.460;26.114;2023-05-21T12:51:20;100323.91;;;25.61;49.84